Abergwesyn, United Kingdom
Current Conditions -  °F | °C
As of 12:50 AM on Sunday 26 Oct 2014 (Local Time) from EGOP Reporting Station
Broken Clouds Broken Clouds  
Wind Chill: 57°   Ceiling: 3500
Heat Index: 57°   Visibility: 6mi
Dew Point: 52°   Wind: 28mph
Humidity: 82%   Direction: 230°SW
Pressure: 30.09"   Gusts: NA
Location:  52.16°N, 3.68°W
Report Text: EGOP 252350Z AUTO 23024KT 9999 // BKN035/// 14/11 Q1019
Loading
Personal Weather Stations






























Interactive Weather Map
Tropical Storm Tracking
New forecast layout! Learn more

10-Day Weather Forecast

Advertisements
Track Severe Weather on mobile